createdAt,value
2018-11-22T00:01:13.404Z,43.30
2018-11-22T00:04:02.183Z,42.37
2018-11-22T00:06:50.990Z,41.37
2018-11-22T00:09:39.760Z,49.60
2018-11-22T00:12:47.523Z,43.47
2018-11-22T00:15:36.321Z,49.23
2018-11-22T00:18:44.089Z,42.90
2018-11-22T00:21:51.863Z,41.30
2018-11-22T00:24:40.657Z,45.50
2018-11-22T00:27:48.434Z,42.00
2018-11-22T00:30:56.497Z,45.80
2018-11-22T00:34:04.241Z,39.03
2018-11-22T00:36:53.043Z,46.87
2018-11-22T00:39:41.817Z,40.67
2018-11-22T00:42:49.984Z,41.40
2018-11-22T00:45:38.788Z,43.17
2018-11-22T00:48:46.539Z,41.43
2018-11-22T00:51:35.397Z,45.17
2018-11-22T00:54:24.181Z,41.63
2018-11-22T00:57:12.985Z,37.50
2018-11-22T01:00:01.753Z,35.33
2018-11-22T01:02:50.694Z,34.97
2018-11-22T01:05:58.447Z,37.80
2018-11-22T01:08:47.229Z,41.57
2018-11-22T01:11:36.016Z,42.47
2018-11-22T01:14:24.799Z,41.70
2018-11-22T01:17:13.646Z,40.67
2018-11-22T01:20:21.420Z,37.60
2018-11-22T01:23:29.164Z,32.40
2018-11-22T01:26:17.960Z,33.40
2018-11-22T01:29:06.755Z,33.60
2018-11-22T01:31:55.562Z,37.83
2018-11-22T01:34:44.379Z,37.87
2018-11-22T01:37:33.434Z,35.23
2018-11-22T01:40:23.617Z,33.93
2018-11-22T01:43:12.397Z,36.33
2018-11-22T01:46:01.211Z,36.50
2018-11-22T01:48:49.993Z,42.63
2018-11-22T01:51:38.764Z,36.50
2018-11-22T01:54:27.623Z,46.03
2018-11-22T01:57:16.393Z,35.93
2018-11-22T02:00:07.865Z,38.50
2018-11-22T02:02:56.622Z,36.40
2018-11-22T02:05:45.407Z,34.23
2018-11-22T02:08:34.187Z,34.70
2018-11-22T02:11:42.306Z,38.47
2018-11-22T02:14:31.079Z,48.37
2018-11-22T02:17:19.910Z,39.97
2018-11-22T02:20:10.863Z,40.97
2018-11-22T02:22:59.952Z,35.57
2018-11-22T02:25:41.272Z,41.73
2018-11-22T02:28:30.361Z,36.47
2018-11-22T02:31:19.474Z,32.63
2018-11-22T02:34:08.350Z,42.60
2018-11-22T02:36:57.120Z,33.57
2018-11-22T02:39:45.914Z,38.73
2018-11-22T02:42:34.741Z,39.10
2018-11-22T02:45:42.812Z,38.27
2018-11-22T02:48:31.579Z,34.40
2018-11-22T02:51:20.871Z,42.47
2018-11-22T02:54:10.049Z,44.90
2018-11-22T02:56:59.151Z,42.80
2018-11-22T02:59:48.002Z,35.90
2018-11-22T03:02:36.778Z,35.80
2018-11-22T03:05:25.552Z,36.97
2018-11-22T03:08:14.885Z,42.33
2018-11-22T03:11:03.902Z,42.47
2018-11-22T03:13:52.946Z,42.87
2018-11-22T03:16:42.045Z,38.10
2018-11-22T03:19:31.135Z,46.03
2018-11-22T03:22:19.949Z,39.80
2018-11-22T03:25:10.209Z,38.90
2018-11-22T03:27:58.974Z,39.30
2018-11-22T03:30:47.776Z,45.13
2018-11-22T03:33:36.579Z,44.00
2018-11-22T03:36:25.357Z,42.37
2018-11-22T03:39:14.204Z,41.97
2018-11-22T03:42:03.016Z,43.00
2018-11-22T03:44:51.856Z,42.13
2018-11-22T03:47:40.720Z,44.42
2018-11-22T03:50:30.034Z,39.70
2018-11-22T03:53:18.871Z,41.90
2018-11-22T03:56:07.669Z,44.57
2018-11-22T03:58:56.454Z,38.23
2018-11-22T04:01:45.288Z,37.60
2018-11-22T04:04:34.045Z,50.90
2018-11-22T04:07:23.150Z,37.33
2018-11-22T04:10:14.701Z,39.57
2018-11-22T04:13:03.482Z,39.70
2018-11-22T04:15:52.257Z,40.07
2018-11-22T04:18:41.105Z,38.63
2018-11-22T04:21:34.879Z,45.97
2018-11-22T04:24:23.693Z,42.37
2018-11-22T04:27:12.476Z,34.70
2018-11-22T04:30:01.575Z,44.87
2018-11-22T04:32:50.599Z,36.03
2018-11-22T04:35:39.412Z,36.40
2018-11-22T04:38:28.197Z,42.62
2018-11-22T04:41:17.000Z,37.23
2018-11-22T04:44:05.917Z,46.20
2018-11-22T04:47:13.689Z,37.93
2018-11-22T04:50:02.520Z,42.17
2018-11-22T04:52:51.282Z,40.50
2018-11-22T04:55:40.130Z,39.77
2018-11-22T04:58:28.915Z,34.57
2018-11-22T05:01:17.718Z,40.80
2018-11-22T05:04:06.502Z,40.83
2018-11-22T05:06:55.276Z,41.37
2018-11-22T05:09:44.088Z,41.03
2018-11-22T05:12:32.856Z,33.80
2018-11-22T05:15:23.063Z,35.17
2018-11-22T05:18:20.062Z,40.45
2018-11-22T05:21:08.864Z,42.23
2018-11-22T05:23:57.634Z,31.47
2018-11-22T05:26:46.522Z,36.40
2018-11-22T05:29:35.309Z,29.10
2018-11-22T05:32:24.122Z,33.70
2018-11-22T05:35:13.855Z,31.77
2018-11-22T05:38:02.651Z,32.37
2018-11-22T05:40:51.429Z,30.80
2018-11-22T05:43:40.243Z,34.13
2018-11-22T05:46:29.014Z,28.27
2018-11-22T05:49:18.149Z,33.30
2018-11-22T05:52:07.747Z,32.28
2018-11-22T05:54:56.527Z,40.37
2018-11-22T05:57:45.759Z,27.80
2018-11-22T06:00:34.574Z,38.10
2018-11-22T06:03:23.362Z,27.77
2018-11-22T06:06:12.144Z,26.23
2018-11-22T06:09:00.910Z,26.27
2018-11-22T06:11:49.731Z,27.47
2018-11-22T06:14:38.516Z,31.00
2018-11-22T06:17:27.728Z,33.93
2018-11-22T06:20:18.064Z,25.97
2018-11-22T06:23:06.863Z,29.20
2018-11-22T06:25:55.660Z,28.03
2018-11-22T06:28:44.486Z,28.00
2018-11-22T06:31:33.948Z,25.70
2018-11-22T06:34:22.766Z,34.53
2018-11-22T06:37:11.878Z,32.93
2018-11-22T06:40:00.703Z,25.90
2018-11-22T06:42:50.905Z,36.43
2018-11-22T06:45:39.735Z,29.37
2018-11-22T06:48:28.582Z,25.77
2018-11-22T06:51:36.345Z,27.93
2018-11-22T06:54:25.161Z,39.37
2018-11-22T06:57:14.278Z,30.07
2018-11-22T07:00:03.051Z,25.87
2018-11-22T07:02:53.152Z,30.40
2018-11-22T07:05:41.945Z,29.33
2018-11-22T07:08:30.752Z,28.67
2018-11-22T07:11:19.864Z,29.60
2018-11-22T07:14:09.034Z,27.67
2018-11-22T07:16:57.806Z,32.43
2018-11-22T07:19:46.900Z,27.73
2018-11-22T07:22:35.725Z,28.57
2018-11-22T07:25:25.386Z,32.40
2018-11-22T07:28:14.238Z,28.53
2018-11-22T07:31:03.460Z,21.83
2018-11-22T07:33:52.367Z,25.67
2018-11-22T07:36:41.148Z,30.23
2018-11-22T07:39:30.656Z,27.87
2018-11-22T07:42:19.445Z,25.10
2018-11-22T07:45:10.884Z,27.13
2018-11-22T07:48:00.687Z,29.10
2018-11-22T07:50:49.512Z,29.20
2018-11-22T07:53:38.308Z,30.05
2018-11-22T07:56:27.112Z,31.90
2018-11-22T07:59:15.917Z,33.07
2018-11-22T08:02:05.130Z,29.43
2018-11-22T08:04:54.275Z,27.90
2018-11-22T08:07:43.612Z,25.10
2018-11-22T08:10:32.371Z,29.30
2018-11-22T08:13:21.178Z,27.07
2018-11-22T08:16:09.973Z,29.03
2018-11-22T08:18:58.758Z,27.07
2018-11-22T08:22:06.597Z,23.17
2018-11-22T08:24:56.263Z,25.43
2018-11-22T08:27:44.955Z,28.50
2018-11-22T08:30:33.761Z,29.27
2018-11-22T08:33:22.530Z,25.70
2018-11-22T08:36:11.349Z,26.87
2018-11-22T08:39:00.144Z,27.07
2018-11-22T08:44:37.117Z,26.27
2018-11-22T08:47:25.972Z,26.90
2018-11-22T08:50:16.093Z,27.83
2018-11-22T08:53:05.475Z,26.57
2018-11-22T08:55:54.216Z,24.07
2018-11-22T08:58:43.027Z,25.13
2018-11-22T09:01:32.113Z,27.93
2018-11-22T09:04:13.934Z,31.67
2018-11-22T09:07:02.740Z,30.40
2018-11-22T09:10:10.470Z,29.63
2018-11-22T09:13:00.233Z,26.43
2018-11-22T09:15:49.373Z,30.20
2018-11-22T09:18:38.161Z,27.43
2018-11-22T09:21:26.927Z,29.73
2018-11-22T09:24:15.708Z,26.30
2018-11-22T09:27:04.872Z,30.70
2018-11-22T09:29:53.668Z,29.10
2018-11-22T09:32:43.189Z,26.05
2018-11-22T09:35:33.337Z,23.10
2018-11-22T09:38:22.133Z,28.00
2018-11-22T09:41:10.924Z,30.97
2018-11-22T09:43:59.741Z,24.37
2018-11-22T09:46:48.834Z,27.10
2018-11-22T09:49:37.656Z,24.00
2018-11-22T09:52:26.430Z,24.20
2018-11-22T09:55:15.682Z,24.37
2018-11-22T09:58:04.464Z,26.03
2018-11-22T10:00:53.234Z,23.30
2018-11-22T10:03:42.300Z,32.40
2018-11-22T10:06:31.120Z,63.43
2018-11-22T10:09:19.963Z,40.97
2018-11-22T10:12:09.282Z,29.85
2018-11-22T10:14:58.106Z,39.60
2018-11-22T10:17:46.878Z,23.00
2018-11-22T10:20:35.971Z,22.90
2018-11-22T10:23:24.805Z,22.60
2018-11-22T10:26:13.582Z,22.80
2018-11-22T10:29:02.388Z,25.40
2018-11-22T10:31:51.167Z,24.00
2018-11-22T10:34:39.975Z,25.30
2018-11-22T10:37:28.746Z,26.70
2018-11-22T10:40:36.779Z,22.00
2018-11-22T10:43:26.170Z,21.00
2018-11-22T10:46:14.977Z,22.00
2018-11-22T10:49:03.753Z,27.67
2018-11-22T10:51:52.532Z,22.73
2018-11-22T10:54:41.316Z,24.50
2018-11-22T10:57:30.176Z,24.83
2018-11-22T11:00:41.722Z,28.70
2018-11-22T11:03:49.487Z,25.33
2018-11-22T11:06:39.634Z,22.20
2018-11-22T11:09:28.397Z,25.93
2018-11-22T11:12:17.202Z,24.07
2018-11-22T11:15:06.453Z,26.20
2018-11-22T11:17:55.294Z,27.27
2018-11-22T11:20:44.078Z,25.83
2018-11-22T11:23:32.921Z,29.33
2018-11-22T11:26:21.879Z,26.63
2018-11-22T11:29:12.789Z,30.40
2018-11-22T11:31:59.727Z,21.70
2018-11-22T11:34:48.601Z,25.20
2018-11-22T11:37:37.389Z,23.67
2018-11-22T11:40:30.747Z,27.20
2018-11-22T11:43:19.517Z,28.83
2018-11-22T11:46:08.486Z,29.77
2018-11-22T11:48:57.314Z,29.67
2018-11-22T11:51:46.423Z,26.40
2018-11-22T11:54:35.220Z,33.23
2018-11-22T11:57:24.185Z,26.37
2018-11-22T12:00:51.299Z,25.60
2018-11-22T12:03:40.093Z,27.30
2018-11-22T12:06:28.888Z,25.33
2018-11-22T12:09:17.688Z,25.57
2018-11-22T12:12:06.483Z,26.73
2018-11-22T12:14:55.654Z,33.10
2018-11-22T12:17:44.458Z,26.40
2018-11-22T12:20:33.594Z,25.40
2018-11-22T12:23:22.408Z,30.80
2018-11-22T12:26:11.191Z,27.67
2018-11-22T12:28:59.973Z,28.17
2018-11-22T12:31:48.758Z,24.73
2018-11-22T12:34:56.557Z,27.00
2018-11-22T12:38:05.033Z,25.97
2018-11-22T12:40:53.885Z,27.03
2018-11-22T12:43:43.046Z,27.53
2018-11-22T12:46:32.122Z,28.40
2018-11-22T12:49:20.970Z,31.57
2018-11-22T12:52:09.763Z,29.30
2018-11-22T12:54:58.785Z,26.23
2018-11-22T12:57:47.571Z,29.13
2018-11-22T13:00:37.055Z,26.20
2018-11-22T13:03:25.888Z,31.20
2018-11-22T13:06:14.658Z,30.00
2018-11-22T13:09:03.533Z,25.17
2018-11-22T13:11:52.275Z,31.93
2018-11-22T13:14:41.045Z,29.70
2018-11-22T13:17:29.865Z,31.83
2018-11-22T13:20:20.135Z,36.27
2018-11-22T13:23:08.926Z,34.60
2018-11-22T13:25:57.703Z,31.87
2018-11-22T13:28:46.487Z,26.33
2018-11-22T13:31:35.299Z,32.20
2018-11-22T13:34:24.100Z,32.93
2018-11-22T13:37:12.862Z,30.80
2018-11-22T13:40:01.664Z,29.03
2018-11-22T13:42:51.261Z,29.60
2018-11-22T13:48:34.628Z,32.60
2018-11-22T13:51:23.686Z,32.50
2018-11-22T13:54:12.796Z,29.03
2018-11-22T13:57:01.934Z,28.00
2018-11-22T13:59:51.024Z,25.13
2018-11-22T14:02:40.438Z,25.23
2018-11-22T14:05:29.194Z,29.97
2018-11-22T14:08:17.986Z,24.30
2018-11-22T14:11:13.531Z,29.40
2018-11-22T14:13:55.940Z,31.37
2018-11-22T14:16:44.702Z,31.77
2018-11-22T14:19:33.482Z,34.23
2018-11-22T14:22:22.576Z,28.40
2018-11-22T14:25:12.530Z,29.83
2018-11-22T14:28:01.314Z,30.57
2018-11-22T14:30:50.107Z,27.50
2018-11-22T14:33:39.229Z,30.10
2018-11-22T14:36:27.994Z,29.40
2018-11-22T14:39:16.812Z,27.93
2018-11-22T14:42:05.799Z,27.23
2018-11-22T14:44:54.595Z,33.47
2018-11-22T14:47:44.736Z,28.20
2018-11-22T14:50:35.196Z,33.27
2018-11-22T14:53:24.005Z,32.00
2018-11-22T14:56:12.772Z,30.60
2018-11-22T14:59:01.863Z,34.60
2018-11-22T15:01:50.631Z,29.97
2018-11-22T15:04:39.747Z,25.30
2018-11-22T15:07:28.850Z,30.70
2018-11-22T15:10:17.873Z,29.70
2018-11-22T15:13:06.918Z,30.33
2018-11-22T15:15:55.714Z,33.90
2018-11-22T15:18:44.476Z,27.03
2018-11-22T15:21:33.262Z,36.30
2018-11-22T15:24:22.080Z,37.38
2018-11-22T15:27:11.253Z,34.03
2018-11-22T15:30:00.085Z,37.57
2018-11-22T15:32:48.873Z,45.47
2018-11-22T15:35:37.643Z,38.37
2018-11-22T15:38:26.441Z,36.40
2018-11-22T15:41:15.211Z,42.80
2018-11-22T15:44:04.292Z,39.73
2018-11-22T15:46:53.053Z,32.73
2018-11-22T15:49:41.830Z,34.90
2018-11-22T15:52:30.614Z,29.93
2018-11-22T15:55:21.136Z,40.37
2018-11-22T15:58:08.485Z,34.00
2018-11-22T16:00:57.275Z,33.57
2018-11-22T16:03:46.467Z,33.30
2018-11-22T16:06:35.275Z,33.17
2018-11-22T16:09:24.062Z,28.98
2018-11-22T16:12:12.861Z,34.97
2018-11-22T16:15:02.001Z,29.93
2018-11-22T16:17:50.799Z,30.53
2018-11-22T16:20:39.847Z,30.70
2018-11-22T16:23:28.651Z,35.80
2018-11-22T16:26:17.450Z,30.13
2018-11-22T16:29:06.397Z,30.30
2018-11-22T16:31:55.170Z,27.13
2018-11-22T16:34:43.963Z,34.47
2018-11-22T16:37:32.737Z,31.50
2018-11-22T16:40:22.905Z,34.47
2018-11-22T16:43:11.670Z,31.57
2018-11-22T16:46:00.464Z,26.67
2018-11-22T16:48:49.254Z,25.60
2018-11-22T16:51:38.043Z,30.50
2018-11-22T16:54:26.825Z,35.27
2018-11-22T16:57:15.964Z,33.53
2018-11-22T17:00:05.483Z,29.10
2018-11-22T17:02:55.390Z,30.53
2018-11-22T17:05:44.796Z,32.60
2018-11-22T17:08:33.564Z,29.63
2018-11-22T17:11:23.155Z,30.43
2018-11-22T17:14:11.954Z,32.30
2018-11-22T17:17:00.760Z,33.30
2018-11-22T17:19:49.591Z,32.97
2018-11-22T17:22:38.785Z,29.57
2018-11-22T17:25:28.836Z,43.73
2018-11-22T17:28:17.598Z,33.40
2018-11-22T17:31:06.402Z,29.63
2018-11-22T17:33:55.303Z,30.12
2018-11-22T17:36:44.101Z,22.87
2018-11-22T17:39:32.888Z,26.90
2018-11-22T17:42:21.675Z,28.00
2018-11-22T17:45:12.795Z,29.83
2018-11-22T17:48:01.743Z,30.60
2018-11-22T17:50:50.823Z,27.30
2018-11-22T17:53:39.600Z,30.63
2018-11-22T17:56:28.400Z,32.73
2018-11-22T17:59:17.182Z,39.05
2018-11-22T18:02:06.431Z,27.53
2018-11-22T18:04:55.205Z,28.87
2018-11-22T18:07:36.732Z,27.90
2018-11-22T18:10:27.030Z,25.37
2018-11-22T18:13:15.837Z,37.70
2018-11-22T18:16:04.704Z,43.03
2018-11-22T18:18:53.490Z,32.20
2018-11-22T18:21:42.289Z,31.03
2018-11-22T18:24:31.530Z,39.57
2018-11-22T18:27:20.696Z,29.00
2018-11-22T18:30:11.890Z,29.50
2018-11-22T18:33:02.282Z,31.10
2018-11-22T18:35:51.048Z,31.43
2018-11-22T18:38:39.862Z,29.20
2018-11-22T18:41:28.630Z,33.17
2018-11-22T18:44:17.424Z,39.50
2018-11-22T18:47:06.583Z,38.00
2018-11-22T18:49:55.403Z,34.00
2018-11-22T18:52:44.694Z,36.45
2018-11-22T18:55:33.497Z,32.10
2018-11-22T18:58:22.299Z,35.70
2018-11-22T19:01:04.417Z,27.40
2018-11-22T19:03:53.296Z,33.60
2018-11-22T19:06:42.208Z,34.57
2018-11-22T19:09:31.221Z,35.10
2018-11-22T19:12:20.177Z,36.53
2018-11-22T19:15:10.905Z,33.70
2018-11-22T19:17:59.793Z,40.37
2018-11-22T19:20:48.583Z,39.37
2018-11-22T19:23:37.390Z,30.43
2018-11-22T19:26:26.211Z,31.63
2018-11-22T19:29:14.995Z,33.93
2018-11-22T19:32:03.830Z,38.80
2018-11-22T19:34:52.704Z,35.23
2018-11-22T19:37:41.880Z,70.67
2018-11-22T19:40:34.999Z,35.77
2018-11-22T19:43:24.275Z,37.13
2018-11-22T19:46:14.032Z,41.17
2018-11-22T19:49:02.921Z,35.07
2018-11-22T19:51:52.307Z,42.57
2018-11-22T19:54:41.468Z,38.30
2018-11-22T19:57:30.312Z,31.50
2018-11-22T20:00:20.136Z,37.57
2018-11-22T20:03:10.197Z,38.50
2018-11-22T20:05:59.778Z,38.00
2018-11-22T20:08:49.611Z,49.30
2018-11-22T20:11:38.972Z,37.53
2018-11-22T20:14:28.601Z,50.07
2018-11-22T20:17:18.359Z,42.87
2018-11-22T20:20:08.924Z,37.57
2018-11-22T20:22:58.775Z,44.77
2018-11-22T20:25:48.864Z,40.30
2018-11-22T20:28:38.695Z,43.97
2018-11-22T20:31:29.078Z,41.43
2018-11-22T20:34:18.888Z,41.33
2018-11-22T20:37:08.011Z,40.83
2018-11-22T20:39:57.961Z,42.90
2018-11-22T20:42:47.782Z,43.67
2018-11-22T20:45:41.063Z,44.27
2018-11-22T20:48:26.364Z,38.67
2018-11-22T20:51:16.125Z,46.30
2018-11-22T20:54:05.950Z,47.40
2018-11-22T20:56:55.367Z,47.30
2018-11-22T20:59:44.497Z,42.30
2018-11-22T21:02:33.607Z,39.37
2018-11-22T21:05:23.136Z,43.33
2018-11-22T21:08:11.967Z,42.37
2018-11-22T21:11:00.852Z,50.20
2018-11-22T21:13:50.047Z,37.70
2018-11-22T21:16:38.941Z,41.70
2018-11-22T21:19:27.701Z,41.53
2018-11-22T21:22:16.706Z,35.17
2018-11-22T21:25:06.831Z,38.27
2018-11-22T21:27:56.166Z,41.00
2018-11-22T21:30:44.956Z,54.27
2018-11-22T21:33:34.706Z,35.13
2018-11-22T21:36:23.168Z,41.03
2018-11-22T21:39:13.425Z,38.43
2018-11-22T21:42:02.860Z,36.77
2018-11-22T21:44:51.857Z,45.63
2018-11-22T21:47:40.878Z,42.63
2018-11-22T21:50:30.079Z,42.73
2018-11-22T21:53:18.867Z,43.40
2018-11-22T21:56:07.673Z,38.53
2018-11-22T21:58:56.444Z,41.92
2018-11-22T22:01:45.679Z,40.37
2018-11-22T22:04:34.470Z,50.15
2018-11-22T22:07:23.298Z,42.90
2018-11-22T22:10:12.153Z,29.23
2018-11-22T22:13:00.952Z,34.43
2018-11-22T22:15:50.036Z,37.60
2018-11-22T22:18:39.239Z,36.67
2018-11-22T22:21:28.014Z,40.20
2018-11-22T22:24:16.805Z,36.63
2018-11-22T22:27:05.784Z,41.60
2018-11-22T22:29:54.585Z,35.50
2018-11-22T22:32:44.165Z,38.92
2018-11-22T22:35:32.970Z,38.90
2018-11-22T22:38:21.737Z,37.23
2018-11-22T22:41:10.551Z,36.57
2018-11-22T22:43:59.321Z,34.10
2018-11-22T22:46:48.440Z,31.57
2018-11-22T22:49:37.217Z,35.40
2018-11-22T22:52:26.070Z,32.87
2018-11-22T22:55:15.235Z,29.33
2018-11-22T22:58:04.009Z,40.07
2018-11-22T23:00:52.799Z,41.87
2018-11-22T23:03:41.607Z,33.03
2018-11-22T23:06:30.393Z,36.77
2018-11-22T23:09:19.151Z,30.87
2018-11-22T23:12:07.935Z,32.60
2018-11-22T23:14:56.720Z,33.00
2018-11-22T23:17:45.534Z,37.13
2018-11-22T23:20:35.487Z,37.47
2018-11-22T23:23:24.294Z,37.37
2018-11-22T23:26:13.445Z,41.90
2018-11-22T23:29:02.247Z,37.30
2018-11-22T23:31:51.331Z,46.70
2018-11-22T23:34:40.123Z,45.83
2018-11-22T23:37:28.920Z,39.23
2018-11-22T23:40:36.679Z,45.47
2018-11-22T23:43:25.881Z,43.98
2018-11-22T23:46:14.694Z,37.73
2018-11-22T23:49:03.487Z,38.42
2018-11-22T23:51:52.635Z,38.10
2018-11-22T23:54:41.712Z,38.47
2018-11-22T23:57:30.813Z,38.33
